Aérodrome :
LOGIN :

S'inscrire | Disclaimer

   EN    FR    IT 

 










Légende :    VFR   VFR Marginal   IFR   IFR Intensif   IFR Très Intensif
Visi : 
Plafond : 
>= 8 km
>= 3000ft
5 à 8 km
1000 à 3000 ft
1500m à 5 km
500 à 1000 ft
800 à 1500m
200 à 500 ft
< 800m
< 200 ft
Symboles :   Orages  Brouillard  Fortes neiges  Fortes précipitations  Vent > 20 kt
SIGMETs :   Divers  Orages  Givrage  Turbulence  Onde Orograph.  Cendres Volcan.







- Altitude de l'aérodrome : 796 ft
- Code IATA : SYT
- Voir les cartes d'approche


LFLN - Saint-Yan

DERNIER METAR :
  • 140800Z AUTO 23009KT 190V260 9999 FEW039 BKN047 OVC054 07/02 Q1009 TEMPO 26015G30KT 4000 SHRA FEW025TCU

METARs EXPIRÉS :
  • 140730Z AUTO 22007KT 170V260 9999 BKN044 OVC052 07/03 Q1009 TEMPO 26015G30KT 4000 SHRA FEW025TCU
  • 140700Z AUTO 22007KT 190V260 CAVOK 08/03 Q1009 NOSIG
  • 140630Z AUTO 23006KT 190V260 CAVOK 08/04 Q1009 NOSIG
  • 140600Z AUTO 22006KT 190V260 9999 OVC045 08/04 Q1009 TEMPO 26015G25KT SCT025TCU
  • 140530Z AUTO 25010KT 220V280 9999 FEW036/// OVC045/// ///CB 08/03 Q1009 TEMPO 26015G25KT BECMG BKN030

TAF TAF LFLN
Valide du 14 à 06h jusqu'au 14 à 15h UTC


140500Z 1406/1415 22010G20KT 9999 BKN030
TEMPO 1406/1407 26015G25KT -SHRA SCT025TCU
TEMPO 1409/1415 26015G30KT 4000 SHRA FEW025TCU
Pas de NOTAMs connus pour ce terrain.
2 SIGMETs publiés pour la FIR Marseille (LFMM) :
 
Turbulence forte
LFMM SIGMET 3 VALID 140600/141000 LFPW
LFMM MARSEILLE FIR/UIR SEV TURB FCST WI N4345 E00730 - N4315 E00945 - N4115 E00945 - N4115 E00845 - N4230 E00830 - N4330 E00645 - N4345 E00730 SFC/FL070 STNR INTSF=
Onde orographique forte
LFMM SIGMET 2 VALID 140600/140900 LFPW
LFMM MARSEILLE FIR/UIR SEV MTW FCST E OF E00900 SFC/FL320 STNR NC=



MET'MAP, la Météo Aéronautique d'un coup d'oeil ! - Copyright ORBIFLY Décembre 2007 - Disclaimer

ORBIFLY MET'MAP TEAM :

Programmation & Développement : Alexandra Zaïnal
Conception & Développement : Baudouin d'Aumeries
Co-Programmation & Développement : Marc-Olivier Méhu
Soutien technique & logistique : Manuel Goepfert

Contact : metmap@orbifly.com




SOURCES & CREDITS :

   NOAA